sensor_id;sensor_type;location;lat;lon;timestamp;pressure;altitude;pressure_sealevel;temperature;humidity
62122;BME280;48108;47.532;19.084;2023-07-13T04:02:26;100031.09;;;22.03;100.00
62122;BME280;48108;47.532;19.084;2023-07-13T04:05:30;100033.03;;;22.07;100.00
62122;BME280;48108;47.532;19.084;2023-07-13T04:08:35;100032.06;;;22.18;100.00
62122;BME280;48108;47.532;19.084;2023-07-13T04:11:38;100024.13;;;22.22;100.00
62122;BME280;48108;47.532;19.084;2023-07-13T04:14:41;100046.94;;;22.28;100.00
62122;BME280;48108;47.532;19.084;2023-07-13T04:17:44;100076.31;;;22.32;100.00
62122;BME280;48108;47.532;19.084;2023-07-13T04:20:47;100091.97;;;22.32;100.00
62122;BME280;48108;47.532;19.084;2023-07-13T04:23:50;100105.88;;;22.25;100.00
62122;BME280;48108;47.532;19.084;2023-07-13T04:26:53;100112.75;;;22.28;100.00
62122;BME280;48108;47.532;19.084;2023-07-13T04:29:56;100117.41;;;22.27;100.00
62122;BME280;48108;47.532;19.084;2023-07-13T04:32:59;100104.00;;;22.31;100.00
62122;BME280;48108;47.532;19.084;2023-07-13T04:36:02;100102.66;;;22.33;100.00
62122;BME280;48108;47.532;19.084;2023-07-13T04:39:05;100108.78;;;22.46;100.00
62122;BME280;48108;47.532;19.084;2023-07-13T04:42:10;100112.38;;;22.51;100.00
62122;BME280;48108;47.532;19.084;2023-07-13T04:45:14;100119.75;;;22.46;100.00
62122;BME280;48108;47.532;19.084;2023-07-13T04:48:18;100128.97;;;22.34;100.00
62122;BME280;48108;47.532;19.084;2023-07-13T04:51:21;100135.53;;;22.28;100.00
62122;BME280;48108;47.532;19.084;2023-07-13T04:54:24;100141.22;;;22.22;100.00
62122;BME280;48108;47.532;19.084;2023-07-13T04:57:27;100149.16;;;22.18;100.00
62122;BME280;48108;47.532;19.084;2023-07-13T05:00:30;100163.53;;;22.08;100.00
62122;BME280;48108;47.532;19.084;2023-07-13T05:03:34;100175.75;;;21.68;100.00
62122;BME280;48108;47.532;19.084;2023-07-13T05:06:38;100195.19;;;21.28;100.00
62122;BME280;48108;47.532;19.084;2023-07-13T05:09:41;100215.69;;;20.87;100.00
62122;BME280;48108;47.532;19.084;2023-07-13T05:12:44;100243.38;;;20.56;100.00
62122;BME280;48108;47.532;19.084;2023-07-13T05:15:55;100274.59;;;20.32;100.00
62122;BME280;48108;47.532;19.084;2023-07-13T05:18:58;100311.50;;;20.17;100.00
62122;BME280;48108;47.532;19.084;2023-07-13T05:22:01;100323.44;;;20.00;100.00
62122;BME280;48108;47.532;19.084;2023-07-13T05:25:06;100327.84;;;19.89;100.00
62122;BME280;48108;47.532;19.084;2023-07-13T05:28:09;100324.09;;;19.66;100.00
62122;BME280;48108;47.532;19.084;2023-07-13T05:31:12;100316.94;;;19.30;100.00
62122;BME280;48108;47.532;19.084;2023-07-13T05:34:16;100318.34;;;19.09;100.00
62122;BME280;48108;47.532;19.084;2023-07-13T05:37:22;100334.47;;;18.99;100.00
62122;BME280;48108;47.532;19.084;2023-07-13T05:40:24;100333.88;;;18.97;100.00
62122;BME280;48108;47.532;19.084;2023-07-13T05:43:27;100324.63;;;18.98;100.00
62122;BME280;48108;47.532;19.084;2023-07-13T05:46:30;100307.78;;;19.01;100.00
62122;BME280;48108;47.532;19.084;2023-07-13T05:49:33;100305.75;;;18.96;100.00
62122;BME280;48108;47.532;19.084;2023-07-13T05:52:36;100303.88;;;18.97;100.00
62122;BME280;48108;47.532;19.084;2023-07-13T05:55:45;100315.72;;;18.91;100.00
62122;BME280;48108;47.532;19.084;2023-07-13T05:58:52;100312.13;;;18.78;100.00
62122;BME280;48108;47.532;19.084;2023-07-13T06:01:55;100290.38;;;18.72;100.00
62122;BME280;48108;47.532;19.084;2023-07-13T06:04:58;100286.56;;;18.61;100.00
62122;BME280;48108;47.532;19.084;2023-07-13T06:08:01;100271.13;;;18.55;100.00
62122;BME280;48108;47.532;19.084;2023-07-13T06:11:14;100279.88;;;18.45;100.00
62122;BME280;48108;47.532;19.084;2023-07-13T06:14:17;100262.06;;;18.43;100.00
62122;BME280;48108;47.532;19.084;2023-07-13T06:17:20;100199.38;;;18.43;100.00
62122;BME280;48108;47.532;19.084;2023-07-13T06:20:23;100135.75;;;18.37;100.00
62122;BME280;48108;47.532;19.084;2023-07-13T06:23:26;99908.00;;;18.29;100.00
62122;BME280;48108;47.532;19.084;2023-07-13T06:26:29;99911.34;;;18.20;100.00
62122;BME280;48108;47.532;19.084;2023-07-13T06:29:32;100017.22;;;18.28;100.00
62122;BME280;48108;47.532;19.084;2023-07-13T06:32:35;99969.50;;;18.37;100.00
62122;BME280;48108;47.532;19.084;2023-07-13T06:35:42;99923.03;;;18.32;100.00
62122;BME280;48108;47.532;19.084;2023-07-13T06:38:45;99914.72;;;18.39;100.00
62122;BME280;48108;47.532;19.084;2023-07-13T06:41:48;99943.03;;;18.49;100.00
62122;BME280;48108;47.532;19.084;2023-07-13T06:44:52;99955.34;;;18.64;100.00
62122;BME280;48108;47.532;19.084;2023-07-13T06:56:03;99950.66;;;19.16;100.00
62122;BME280;48108;47.532;19.084;2023-07-13T06:59:06;99934.22;;;19.62;100.00
62122;BME280;48108;47.532;19.084;2023-07-13T07:02:10;99944.19;;;19.85;100.00
62122;BME280;48108;47.532;19.084;2023-07-13T07:05:14;99957.34;;;19.88;100.00
62122;BME280;48108;47.532;19.084;2023-07-13T07:08:16;99947.00;;;20.07;100.00
62122;BME280;48108;47.532;19.084;2023-07-13T07:11:23;99948.75;;;20.35;100.00
62122;BME280;48108;47.532;19.084;2023-07-13T07:14:26;99962.97;;;20.76;100.00
62122;BME280;48108;47.532;19.084;2023-07-13T07:17:29;99987.09;;;21.28;100.00
62122;BME280;48108;47.532;19.084;2023-07-13T07:20:32;100058.16;;;21.62;100.00
62122;BME280;48108;47.532;19.084;2023-07-13T07:23:35;100099.06;;;22.01;100.00
62122;BME280;48108;47.532;19.084;2023-07-13T07:30:31;100104.16;;;22.51;100.00
62122;BME280;48108;47.532;19.084;2023-07-13T07:33:37;100122.88;;;22.59;100.00
62122;BME280;48108;47.532;19.084;2023-07-13T07:36:40;100132.16;;;22.91;100.00
62122;BME280;48108;47.532;19.084;2023-07-13T07:39:45;100143.34;;;22.84;100.00
62122;BME280;48108;47.532;19.084;2023-07-13T07:43:12;100145.66;;;22.60;100.00
62122;BME280;48108;47.532;19.084;2023-07-13T07:46:14;100150.75;;;22.46;100.00
62122;BME280;48108;47.532;19.084;2023-07-13T07:49:44;100156.28;;;22.51;100.00
62122;BME280;48108;47.532;19.084;2023-07-13T07:52:46;100162.34;;;22.53;100.00
62122;BME280;48108;47.532;19.084;2023-07-13T07:55:49;100163.09;;;22.44;100.00
62122;BME280;48108;47.532;19.084;2023-07-13T07:58:56;100158.84;;;22.63;100.00
62122;BME280;48108;47.532;19.084;2023-07-13T08:02:02;100158.38;;;22.71;100.00
62122;BME280;48108;47.532;19.084;2023-07-13T08:05:08;100164.53;;;22.89;100.00
62122;BME280;48108;47.532;19.084;2023-07-13T08:08:14;100161.56;;;22.95;100.00
62122;BME280;48108;47.532;19.084;2023-07-13T08:11:17;100164.19;;;23.17;100.00
62122;BME280;48108;47.532;19.084;2023-07-13T08:14:23;100155.44;;;23.25;100.00
62122;BME280;48108;47.532;19.084;2023-07-13T08:17:40;100148.34;;;23.45;100.00
62122;BME280;48108;47.532;19.084;2023-07-13T08:20:43;100147.28;;;23.51;100.00
62122;BME280;48108;47.532;19.084;2023-07-13T08:23:46;100150.06;;;23.56;100.00
62122;BME280;48108;47.532;19.084;2023-07-13T08:26:50;100162.50;;;23.74;100.00
62122;BME280;48108;47.532;19.084;2023-07-13T08:29:54;100168.31;;;23.88;100.00
62122;BME280;48108;47.532;19.084;2023-07-13T08:32:57;100171.69;;;24.20;100.00
62122;BME280;48108;47.532;19.084;2023-07-13T08:36:00;100166.75;;;24.23;100.00
62122;BME280;48108;47.532;19.084;2023-07-13T08:39:03;100159.56;;;24.42;100.00
62122;BME280;48108;47.532;19.084;2023-07-13T08:42:27;100159.59;;;24.67;100.00
62122;BME280;48108;47.532;19.084;2023-07-13T08:45:46;100157.97;;;24.72;100.00
62122;BME280;48108;47.532;19.084;2023-07-13T08:55:34;100169.72;;;25.08;100.00
62122;BME280;48108;47.532;19.084;2023-07-13T08:58:41;100174.41;;;25.18;100.00
62122;BME280;48108;47.532;19.084;2023-07-13T09:05:19;100168.41;;;25.75;100.00
62122;BME280;48108;47.532;19.084;2023-07-13T09:12:07;100162.16;;;25.60;95.60
62122;BME280;48108;47.532;19.084;2023-07-13T09:15:34;100166.31;;;25.47;97.54
62122;BME280;48108;47.532;19.084;2023-07-13T09:26:13;100164.91;;;25.54;98.30
62122;BME280;48108;47.532;19.084;2023-07-13T09:29:28;100170.88;;;25.82;95.88
62122;BME280;48108;47.532;19.084;2023-07-13T09:32:32;100168.06;;;26.32;93.71
62122;BME280;48108;47.532;19.084;2023-07-13T09:35:58;100166.22;;;26.17;91.87
62122;BME280;48108;47.532;19.084;2023-07-13T09:39:37;100185.22;;;26.23;91.70
62122;BME280;48108;47.532;19.084;2023-07-13T09:42:45;100180.91;;;26.12;92.93
62122;BME280;48108;47.532;19.084;2023-07-13T09:46:20;100177.41;;;25.96;90.93
62122;BME280;48108;47.532;19.084;2023-07-13T09:49:35;100185.44;;;25.93;93.58
62122;BME280;48108;47.532;19.084;2023-07-13T09:52:47;100190.59;;;26.05;91.47
62122;BME280;48108;47.532;19.084;2023-07-13T09:55:50;100197.19;;;26.09;91.86
62122;BME280;48108;47.532;19.084;2023-07-13T09:58:56;100195.06;;;26.40;91.76
62122;BME280;48108;47.532;19.084;2023-07-13T10:02:00;100189.63;;;26.30;90.36
62122;BME280;48108;47.532;19.084;2023-07-13T10:08:56;100184.34;;;26.67;88.56
62122;BME280;48108;47.532;19.084;2023-07-13T10:12:00;100179.28;;;27.09;85.15
62122;BME280;48108;47.532;19.084;2023-07-13T10:15:09;100178.72;;;27.36;84.14
62122;BME280;48108;47.532;19.084;2023-07-13T10:18:26;100184.06;;;27.51;81.71
62122;BME280;48108;47.532;19.084;2023-07-13T10:21:38;100178.03;;;27.68;81.96
62122;BME280;48108;47.532;19.084;2023-07-13T10:24:42;100181.31;;;27.94;80.09
62122;BME280;48108;47.532;19.084;2023-07-13T10:27:47;100177.88;;;28.02;79.18
62122;BME280;48108;47.532;19.084;2023-07-13T10:30:52;100173.88;;;28.27;80.33
62122;BME280;48108;47.532;19.084;2023-07-13T10:33:56;100185.47;;;28.48;80.15
62122;BME280;48108;47.532;19.084;2023-07-13T10:37:00;100193.47;;;28.83;77.00
62122;BME280;48108;47.532;19.084;2023-07-13T10:40:05;100188.66;;;29.21;73.19
62122;BME280;48108;47.532;19.084;2023-07-13T10:43:36;100188.47;;;29.31;71.44
62122;BME280;48108;47.532;19.084;2023-07-13T10:46:41;100182.91;;;29.18;69.96
62122;BME280;48108;47.532;19.084;2023-07-13T10:49:47;100188.25;;;29.55;68.26
62122;BME280;48108;47.532;19.084;2023-07-13T10:53:02;100183.63;;;30.15;68.83
62122;BME280;48108;47.532;19.084;2023-07-13T10:56:28;100195.53;;;30.29;65.86
62122;BME280;48108;47.532;19.084;2023-07-13T10:59:35;100196.87;;;30.18;66.15
62122;BME280;48108;47.532;19.084;2023-07-13T11:02:37;100187.56;;;30.59;66.70
62122;BME280;48108;47.532;19.084;2023-07-13T11:05:40;100186.94;;;30.84;61.60
62122;BME280;48108;47.532;19.084;2023-07-13T11:11:49;100172.22;;;31.15;62.47
62122;BME280;48108;47.532;19.084;2023-07-13T11:18:04;100175.44;;;32.49;57.00
62122;BME280;48108;47.532;19.084;2023-07-13T11:21:17;100169.16;;;32.69;52.87
62122;BME280;48108;47.532;19.084;2023-07-13T11:24:48;100184.41;;;32.81;51.76
62122;BME280;48108;47.532;19.084;2023-07-13T11:31:13;100174.22;;;33.70;47.64
62122;BME280;48108;47.532;19.084;2023-07-13T11:34:24;100169.31;;;33.88;45.86
62122;BME280;48108;47.532;19.084;2023-07-13T11:37:30;100161.94;;;34.80;44.66
62122;BME280;48108;47.532;19.084;2023-07-13T11:40:33;100159.88;;;34.89;43.90
62122;BME280;48108;47.532;19.084;2023-07-13T11:43:35;100153.34;;;36.80;41.29
62122;BME280;48108;47.532;19.084;2023-07-13T11:46:38;100154.25;;;36.84;38.95
62122;BME280;48108;47.532;19.084;2023-07-13T11:49:52;100162.16;;;37.41;36.71
62122;BME280;48108;47.532;19.084;2023-07-13T11:52:58;100157.91;;;37.00;35.66
